Main page
METAR-TAF:

METAR-TAF

Airports :

Pontoise, France

Pontoise – Cormeilles Aerodrome

latitude: 49-05-48N, longitude: 002-02-27E, elevation: 99 m

Current weather observation

The report was made 24 minutes ago, at 17:30 UTC
Wind 3 kt from the South/Southeast, varying between Southeast and South
Temperature 9°C
Humidity 87%
Pressure 1017 hPa
Visibility 10 km or more
Broken clouds at a height of 4200 ft
Broken clouds at a height of 6000 ft
Overcast at a height of 7400 ft

METAR: LFPT 281730Z AUTO 15003KT 130V190 9999 BKN042 BKN060 OVC074 09/07 Q1017

Time: 19:54 (17:54 UTC)


TAF: missing

Weather observations and forecasts of more than 4000 airports (METAR and TAF reports).

The available stations are represented by yellow and red dots on the map.

Hover mouse over dot to see the name of the station.

Then click to see weather observations and forecasts.

To change the map : click on the green buttons with a black cross to zoom in, on the green button with a dash to zoom out, or on the green arrows for adjacent maps.


METAR-TAF: